createdAt,value
2023-05-12T00:03:20.977Z,13.89
2023-05-12T00:08:24.011Z,13.85
2023-05-12T00:13:29.140Z,13.83
2023-05-12T00:18:32.192Z,13.78
2023-05-12T00:23:37.382Z,13.73
2023-05-12T00:28:40.326Z,13.68
2023-05-12T00:33:43.230Z,13.63
2023-05-12T00:38:46.191Z,13.56
2023-05-12T00:43:49.611Z,13.53
2023-05-12T00:48:52.886Z,13.48
2023-05-12T00:53:57.499Z,13.39
2023-05-12T00:59:00.563Z,13.34
2023-05-12T01:04:04.621Z,13.24
2023-05-12T01:09:08.726Z,13.21
2023-05-12T01:14:12.083Z,13.15
2023-05-12T01:19:31.840Z,13.10
2023-05-12T01:24:42.512Z,13.08
2023-05-12T01:29:47.503Z,13.07
2023-05-12T01:34:52.720Z,13.04
2023-05-12T01:39:56.789Z,12.98
2023-05-12T01:44:59.784Z,12.95
2023-05-12T01:50:03.789Z,12.92
2023-05-12T01:55:09.217Z,12.89
2023-05-12T02:00:30.596Z,12.83
2023-05-12T02:05:33.900Z,12.76
2023-05-12T02:10:37.414Z,12.75
2023-05-12T02:15:40.458Z,12.73
2023-05-12T02:20:43.895Z,12.68
2023-05-12T02:25:46.894Z,12.61
2023-05-12T02:30:51.091Z,12.54
2023-05-12T02:35:54.390Z,12.48
2023-05-12T02:40:57.448Z,12.43
2023-05-12T02:46:02.231Z,12.41
2023-05-12T02:51:06.068Z,12.37
2023-05-12T02:56:09.135Z,12.33
2023-05-12T03:01:12.284Z,12.28
2023-05-12T03:06:16.275Z,12.24
2023-05-12T03:11:19.551Z,12.18
2023-05-12T03:16:22.764Z,12.10
2023-05-12T03:21:26.057Z,12.06
2023-05-12T03:26:29.039Z,12.03
2023-05-12T03:31:32.178Z,12.01
2023-05-12T03:36:35.161Z,11.97
2023-05-12T03:41:39.089Z,11.93
2023-05-12T03:46:42.409Z,11.96
2023-05-12T03:51:45.449Z,11.99
2023-05-12T03:56:48.451Z,12.01
2023-05-12T04:01:53.508Z,12.07
2023-05-12T04:06:56.929Z,12.14
2023-05-12T04:12:01.142Z,12.15
2023-05-12T04:17:04.979Z,12.13
2023-05-12T04:22:07.890Z,12.13
2023-05-12T04:27:10.849Z,12.18
2023-05-12T04:32:14.618Z,12.21
2023-05-12T04:37:17.775Z,12.21
2023-05-12T04:42:21.317Z,12.21
2023-05-12T04:47:24.447Z,12.18
2023-05-12T04:52:27.667Z,12.18
2023-05-12T04:57:30.670Z,12.22
2023-05-12T05:02:34.719Z,12.29
2023-05-12T05:07:38.073Z,12.33
2023-05-12T05:12:41.274Z,12.38
2023-05-12T05:17:49.262Z,12.47
2023-05-12T05:22:52.892Z,12.62
2023-05-12T05:27:56.097Z,12.71
2023-05-12T05:32:59.581Z,12.77
2023-05-12T05:38:03.722Z,12.98
2023-05-12T05:43:08.557Z,13.21
2023-05-12T05:48:11.827Z,13.36
2023-05-12T05:53:15.047Z,13.47
2023-05-12T05:58:18.491Z,13.51
2023-05-12T06:03:23.649Z,13.60
2023-05-12T06:08:26.913Z,13.73
2023-05-12T06:13:30.812Z,13.83
2023-05-12T06:18:37.908Z,13.97
2023-05-12T06:23:41.647Z,14.12
2023-05-12T06:28:44.645Z,14.35
2023-05-12T06:33:47.846Z,14.51
2023-05-12T06:38:51.186Z,14.62
2023-05-12T06:43:54.230Z,14.71
2023-05-12T06:49:03.679Z,14.76
2023-05-12T06:54:06.697Z,14.77
2023-05-12T06:59:09.685Z,14.79
2023-05-12T07:04:12.986Z,14.95
2023-05-12T07:09:18.825Z,15.13
2023-05-12T07:14:21.765Z,15.28
2023-05-12T07:19:24.676Z,15.43
2023-05-12T07:24:28.029Z,15.54
2023-05-12T07:29:31.569Z,15.67
2023-05-12T07:34:34.596Z,15.84
2023-05-12T07:39:37.518Z,15.98
2023-05-12T07:44:41.431Z,16.16
2023-05-12T07:49:44.404Z,16.32
2023-05-12T07:54:47.359Z,16.41
2023-05-12T07:59:50.381Z,16.52
2023-05-12T08:04:53.310Z,16.68
2023-05-12T08:09:56.332Z,16.87
2023-05-12T08:14:59.704Z,17.07
2023-05-12T08:20:07.373Z,17.24
2023-05-12T08:25:12.411Z,17.35
2023-05-12T08:30:16.077Z,17.44
2023-05-12T08:35:21.052Z,17.74
2023-05-12T08:40:25.834Z,18.00
2023-05-12T08:45:29.774Z,18.38
2023-05-12T08:50:35.597Z,18.56
2023-05-12T08:55:50.815Z,18.59
2023-05-12T09:01:05.292Z,18.67
2023-05-12T09:06:10.934Z,18.86
2023-05-12T09:11:14.603Z,19.05
2023-05-12T09:16:22.572Z,19.25
2023-05-12T09:21:26.650Z,19.43
2023-05-12T09:26:29.747Z,19.57
2023-05-12T09:31:32.764Z,19.69
2023-05-12T09:36:36.694Z,19.84
2023-05-12T09:41:43.249Z,19.97
2023-05-12T09:46:48.031Z,20.22
2023-05-12T09:51:59.839Z,20.41
2023-05-12T09:57:05.238Z,20.46
2023-05-12T10:02:09.594Z,20.53
2023-05-12T10:07:14.536Z,20.53
2023-05-12T10:12:17.686Z,20.45
2023-05-12T10:17:21.319Z,20.44
2023-05-12T10:22:25.315Z,20.63
2023-05-12T10:27:30.055Z,20.95
2023-05-12T10:32:34.544Z,20.85
2023-05-12T10:37:40.088Z,20.89
2023-05-12T10:42:43.334Z,21.17
2023-05-12T10:47:47.339Z,21.35
2023-05-12T10:52:54.936Z,21.54
2023-05-12T10:58:10.112Z,21.41
2023-05-12T11:03:17.407Z,21.38
2023-05-12T11:08:23.392Z,21.17
2023-05-12T11:13:26.843Z,21.00
2023-05-12T11:18:29.841Z,20.72
2023-05-12T11:23:33.259Z,20.57
2023-05-12T11:28:42.437Z,20.84
2023-05-12T11:33:45.398Z,21.29
2023-05-12T11:38:50.446Z,21.25
2023-05-12T11:43:56.083Z,21.34
2023-05-12T11:49:00.200Z,21.30
2023-05-12T11:54:03.443Z,21.14
2023-05-12T11:59:06.450Z,21.06
2023-05-12T12:04:09.755Z,21.16
2023-05-12T12:09:13.657Z,21.18
2023-05-12T12:14:16.936Z,21.10
2023-05-12T12:19:20.136Z,21.53
2023-05-12T12:24:24.222Z,21.88
2023-05-12T12:29:28.554Z,21.62
2023-05-12T12:34:31.990Z,21.33
2023-05-12T12:39:35.060Z,21.53
2023-05-12T12:44:37.986Z,22.12
2023-05-12T12:49:40.987Z,22.44
2023-05-12T12:54:43.945Z,22.41
2023-05-12T12:59:46.927Z,22.97
2023-05-12T13:04:50.021Z,23.47
2023-05-12T13:09:53.080Z,23.26
2023-05-12T13:14:56.390Z,22.73
2023-05-12T13:19:59.289Z,22.26
2023-05-12T13:25:03.541Z,22.21
2023-05-12T13:30:08.427Z,22.39
2023-05-12T13:35:11.442Z,22.37
2023-05-12T13:40:14.402Z,22.28
2023-05-12T13:45:18.360Z,22.54
2023-05-12T13:50:22.568Z,22.33
2023-05-12T13:55:25.788Z,21.87
2023-05-12T14:00:29.984Z,21.66
2023-05-12T14:05:33.098Z,22.09
2023-05-12T14:10:36.406Z,22.62
2023-05-12T14:15:48.648Z,22.98
2023-05-12T14:20:52.517Z,23.11
2023-05-12T14:25:55.687Z,23.01
2023-05-12T14:30:58.850Z,22.85
2023-05-12T14:36:07.266Z,22.66
2023-05-12T14:41:11.726Z,22.53
2023-05-12T14:46:15.196Z,22.32
2023-05-12T14:51:18.474Z,22.20
2023-05-12T14:56:21.433Z,22.06
2023-05-12T15:01:24.428Z,21.82
2023-05-12T15:06:27.961Z,21.73
2023-05-12T15:11:31.054Z,21.57
2023-05-12T15:16:34.435Z,21.40
2023-05-12T15:21:37.597Z,21.29
2023-05-12T15:26:40.782Z,21.22
2023-05-12T15:31:44.027Z,21.13
2023-05-12T15:36:48.994Z,21.03
2023-05-12T15:41:52.321Z,20.97
2023-05-12T15:46:55.822Z,20.92
2023-05-12T15:51:59.051Z,20.82
2023-05-12T15:57:02.385Z,20.71
2023-05-12T16:02:05.371Z,20.65
2023-05-12T16:07:08.707Z,20.57
2023-05-12T16:12:11.951Z,20.46
2023-05-12T16:17:15.091Z,20.33
2023-05-12T16:22:18.034Z,20.24
2023-05-12T16:27:21.279Z,20.17
2023-05-12T16:32:24.397Z,20.16
2023-05-12T16:37:27.923Z,20.12
2023-05-12T16:42:31.308Z,20.11
2023-05-12T16:47:34.348Z,20.09
2023-05-12T16:52:37.353Z,20.04
2023-05-12T16:57:42.656Z,20.00
2023-05-12T17:02:46.505Z,19.94
2023-05-12T17:07:49.765Z,19.92
2023-05-12T17:12:53.087Z,19.87
2023-05-12T17:17:56.891Z,19.83
2023-05-12T17:23:00.333Z,19.82
2023-05-12T17:28:04.667Z,19.76
2023-05-12T17:33:08.525Z,19.69
2023-05-12T17:38:11.671Z,19.63
2023-05-12T17:43:16.346Z,19.52
2023-05-12T17:48:19.587Z,19.17
2023-05-12T17:53:22.823Z,18.93
2023-05-12T17:58:26.049Z,18.77
2023-05-12T18:03:29.062Z,18.59
2023-05-12T18:08:32.211Z,18.44
2023-05-12T18:13:35.156Z,18.30
2023-05-12T18:18:38.692Z,18.16
2023-05-12T18:23:41.832Z,18.07
2023-05-12T18:28:44.886Z,17.97
2023-05-12T18:33:48.913Z,17.91
2023-05-12T18:38:51.868Z,17.90
2023-05-12T18:43:54.932Z,17.70
2023-05-12T18:48:57.999Z,17.54
2023-05-12T18:54:01.054Z,17.41
2023-05-12T18:59:04.336Z,17.27
2023-05-12T19:04:07.751Z,17.16
2023-05-12T19:09:11.101Z,17.05
2023-05-12T19:14:16.048Z,16.95
2023-05-12T19:19:19.155Z,16.93
2023-05-12T19:24:25.690Z,16.88
2023-05-12T19:29:28.809Z,16.87
2023-05-12T19:34:32.364Z,16.88
2023-05-12T19:39:35.383Z,16.80
2023-05-12T19:44:38.360Z,16.77
2023-05-12T19:49:41.842Z,16.76
2023-05-12T19:54:45.002Z,16.75
2023-05-12T19:59:48.041Z,16.70
2023-05-12T20:04:51.065Z,16.70
2023-05-12T20:09:54.371Z,16.67
2023-05-12T20:14:57.681Z,16.64
2023-05-12T20:20:02.362Z,16.62
2023-05-12T20:25:05.953Z,16.57
2023-05-12T20:30:10.181Z,16.56
2023-05-12T20:35:13.211Z,16.53
2023-05-12T20:40:16.389Z,16.50
2023-05-12T20:45:20.036Z,16.47
2023-05-12T20:50:23.954Z,16.44
2023-05-12T20:55:27.038Z,16.40
2023-05-12T21:00:30.035Z,16.35
2023-05-12T21:05:33.191Z,16.24
2023-05-12T21:10:39.393Z,16.17
2023-05-12T21:15:42.592Z,16.10
2023-05-12T21:20:45.730Z,16.04
2023-05-12T21:25:49.208Z,15.96
2023-05-12T21:30:52.318Z,15.88
2023-05-12T21:35:55.286Z,15.82
2023-05-12T21:40:59.152Z,15.76
2023-05-12T21:46:03.902Z,15.72
2023-05-12T21:51:07.299Z,15.67
2023-05-12T21:56:10.347Z,15.60
2023-05-12T22:01:13.288Z,15.56
2023-05-12T22:06:16.737Z,15.51
2023-05-12T22:11:19.909Z,15.47
2023-05-12T22:16:31.094Z,15.40
2023-05-12T22:21:37.980Z,15.35
2023-05-12T22:26:41.493Z,15.31
2023-05-12T22:31:44.685Z,15.26
2023-05-12T22:36:47.813Z,15.20
2023-05-12T22:41:51.201Z,15.15
2023-05-12T22:46:54.176Z,15.06
2023-05-12T22:51:57.257Z,14.99
2023-05-12T22:57:00.428Z,14.92
2023-05-12T23:02:03.540Z,14.86
2023-05-12T23:07:09.027Z,14.80
2023-05-12T23:12:12.348Z,14.77
2023-05-12T23:17:15.366Z,14.70
2023-05-12T23:22:18.355Z,14.64
2023-05-12T23:27:21.496Z,14.56
2023-05-12T23:32:24.591Z,14.49
2023-05-12T23:37:27.678Z,14.38
2023-05-12T23:42:30.758Z,14.28
2023-05-12T23:47:33.870Z,14.22
2023-05-12T23:52:37.176Z,14.13
2023-05-12T23:57:40.209Z,14.04
